Strona główna
METAR-TAF:

METAR-TAF

Lotnisko :

Port lotniczy Malaga

Malaga, Hiszpania

Szerokość geograficzna: 36-40N, Długość geograficzna: 004-29W, wysokość: 16 m

Aktualna obserwacja pogody

Raport powstał 33 minut temu, godzina 17:00 UTC
Wiatr 11 kt od wschodnio-południowy wschód
Temperatura 25°C
Wilgotność 54%
Ciśnienie 1009 hPa
Widzialność 10 km lub więcej
Brak chmur poniżej 1500 m i brak chmur cumulonimbus

METAR: LEMG 251700Z 12011KT CAVOK 25/15 Q1009 NOSIG

czas: 19:33 (17:33 UTC)

Prognoza

Raport powstał 6 godziny i 33 minut temu, godzina 11:00 UTC
Prognoza ważna od 25 godzina 12 UTC do 26 godzina 12 UTC
Wiatr 10 kt od południowy wschód
Widzialność 10 km lub więcej
Brak chmur poniżej 1500 m i brak chmur cumulonimbus

TAF: LEMG 251100Z 2512/2612 14010KT CAVOK TX28/2514Z TN19/2606Z

Obserwacja i prognoza pogody dla ponad 4000 lotnisk (raport METAR i TAF).

Dostępne stacje oznaczono żółtymi i czerwonymi punktami na mapie.

Najedź kursorem aby zobaczyć nazwę stacji.

Kliknij aby zobaczyć obserwacje i prognozy pogody.

Aby zmienić mapę: kliknij na zielony przycisk z czarnym krzyżykiem, aby powiększyć; na zielony przycisk z myślnikiem, aby pomniejszyć; na zielone strzałki, aby przejść do map sąsiednich.


METAR-TAF: